Data for 01/20/2014

Time Sea-Level Adjusted Pressure Absolute Pressure Temperature Relative Humidity Dew Point   
(mb) (inHg) (mb) (inHg) (C) (F) (%) (C) (F)
00:05 1021 30.15 850 25.1 3.8 38.9 42 -7.8 18
00:10 1021 30.15 850 25.1 4 39.2 41 -8.2 17.2
00:15 1021 30.15 850 25.1 4 39.1 41 -8 17.6
00:20 1021 30.15 850 25.1 3.9 39.1 40 -8.5 16.7
00:25 1021 30.15 850 25.1 4.1 39.4 40 -8.2 17.2
00:30 1021 30.15 850 25.1 4.2 39.6 39 -8.6 16.4
00:35 1021 30.15 850 25.1 4.6 40.3 38 -8.4 16.9
00:40 1021 30.15 851 25.13 4.7 40.5 39 -8.1 17.5
00:45 1021 30.15 851 25.13 4.8 40.6 40 -7.7 18.2
00:50 1021 30.15 851 25.13 4.6 40.3 42 -7.2 19
00:55 1021 30.15 851 25.13 4.3 39.8 41 -7.7 18.1
01:00 1022 30.18 851 25.13 4.4 40 42 -7.4 18.7
01:05 1022 30.18 851 25.13 4.6 40.2 42 -7.3 18.8
01:10 1022 30.18 851 25.13 4.5 40.1 43 -7.1 19.3
01:15 1022 30.18 851 25.13 4.4 39.8 43 -7 19.3
01:20 1022 30.18 851 25.13 4.3 39.7 44 -6.9 19.7
01:25 1022 30.18 851 25.13 4.2 39.6 44 -7 19.5
01:30 1022 30.18 851 25.13 4.1 39.3 44 -7 19.4
01:35 1022 30.18 851 25.13 4 39.2 45 -7 19.4
01:40 1022 30.18 851 25.13 4 39.1 43 -7.4 18.7
01:45 1022 30.18 852 25.16 4 39.1 44 -7.1 19.3
01:50 1023 30.21 852 25.16 3.8 38.9 45 -7 19.4
01:55 1023 30.21 852 25.16 3.6 38.5 46 -6.9 19.6
02:00 1023 30.21 852 25.16 3.4 38.1 47 -6.9 19.6
02:05 1023 30.21 852 25.16 3.2 37.8 48 -6.7 19.9
02:10 1023 30.21 852 25.16 3 37.4 49 -6.6 20.2
02:15 1023 30.21 852 25.16 2.8 37.1 50 -6.5 20.2
02:20 1023 30.21 852 25.16 2.8 37 50 -6.7 20
02:25 1023 30.21 853 25.19 2.9 37.1 48 -7 19.4
02:30 1024 30.24 853 25.19 3 37.5 48 -7 19.4
02:35 1024 30.24 853 25.19 3.1 37.6 47 -7 19.4
02:40 1024 30.24 853 25.19 3.1 37.6 48 -6.8 19.8
02:45 1024 30.24 853 25.19 2.7 36.8 51 -6.5 20.3
02:50 1024 30.24 853 25.19 2.4 36.3 52 -6.5 20.2
02:55 1024 30.24 853 25.19 2.5 36.4 49 -7.2 19.1
03:00 1025 30.27 854 25.22 2.7 36.9 49 -6.9 19.6
03:05 1025 30.27 854 25.22 2.8 37 49 -6.9 19.6
03:10 1025 30.27 854 25.22 2.8 37 48 -7.3 18.8
03:15 1025 30.27 854 25.22 2.9 37.2 48 -7.2 19.1
03:20 1025 30.27 854 25.22 2.9 37.2 49 -6.9 19.7
03:25 1025 30.27 854 25.22 2.8 37 49 -6.8 19.8
03:30 1025 30.27 854 25.22 2.7 36.8 48 -7.2 19
03:35 1025 30.27 854 25.22 2.7 36.9 47 -7.5 18.6
03:40 1025 30.27 854 25.22 2.8 37 48 -7.2 19
03:45 1025 30.27 854 25.22 2.7 36.8 48 -7.3 18.9
03:50 1025 30.27 855 25.25 2.5 36.6 48 -7.4 18.7
03:55 1026 30.3 855 25.25 2.5 36.5 48 -7.4 18.6
04:00 1026 30.3 855 25.25 2.4 36.3 49 -7.2 19.1
04:05 1026 30.3 855 25.25 2.3 36.2 48 -7.6 18.3
04:10 1026 30.3 855 25.25 2.3 36.1 49 -7.5 18.5
04:15 1026 30.3 855 25.25 2.1 35.8 48 -7.8 18
04:20 1026 30.3 855 25.25 1.9 35.5 49 -7.6 18.4
04:25 1026 30.3 855 25.25 1.7 35.1 50 -7.7 18.1
04:30 1026 30.3 855 25.25 1.6 34.8 49 -8 17.7
04:35 1026 30.3 855 25.25 1.5 34.6 50 -7.8 17.9
04:40 1026 30.3 855 25.25 1.3 34.4 50 -8.1 17.5
04:45 1026 30.3 855 25.25 1.2 34.1 50 -8 17.6
04:50 1026 30.3 855 25.25 1.1 34 50 -8.1 17.4
04:55 1026 30.3 855 25.25 1 33.8 51 -8.1 17.4
05:00 1026 30.3 855 25.25 0.8 33.5 52 -8 17.7
05:05 1026 30.3 856 25.28 0.6 33.1 53 -8 17.7
05:10 1026 30.3 856 25.28 0.4 32.7 53 -8 17.6
05:15 1027 30.33 856 25.28 0.3 32.6 54 -7.9 17.7
05:20 1027 30.33 856 25.28 0.1 32.2 55 -8 17.6
05:25 1027 30.33 856 25.28 -0.1 31.9 56 -7.8 17.9
05:30 1027 30.33 856 25.28 -0.2 31.7 57 -7.8 18
05:35 1027 30.33 856 25.28 -0.4 31.3 59 -7.5 18.5
05:40 1027 30.33 856 25.28 -0.7 30.8 59 -7.6 18.3
05:45 1027 30.33 856 25.28 -0.8 30.6 60 -7.5 18.4
05:50 1027 30.33 856 25.28 -1 30.3 61 -7.5 18.5
05:55 1027 30.33 857 25.31 -1.1 30 61 -7.8 18
06:00 1027 30.33 857 25.31 -1.1 30 61 -7.8 18
06:05 1028 30.36 857 25.31 -1.2 29.9 61 -7.8 18
06:10 1028 30.36 857 25.31 -1.3 29.6 62 -7.8 18
06:15 1027 30.33 857 25.31 -1.4 29.5 62 -7.7 18.1
06:20 1027 30.33 857 25.31 -1.6 29.2 63 -7.7 18.2
06:25 1028 30.36 857 25.31 -1.8 28.8 64 -7.8 17.9
06:30 1028 30.36 857 25.31 -1.8 28.7 62 -8.1 17.5
06:35 1028 30.36 857 25.31 -1.7 29 62 -8.1 17.5
06:40 1028 30.36 857 25.31 -1.6 29.1 62 -8 17.6
06:45 1028 30.36 857 25.31 -1.8 28.8 63 -7.9 17.8
06:50 1028 30.36 857 25.31 -2 28.4 65 -7.8 18
06:55 1028 30.36 857 25.31 -2.2 28 65 -7.8 17.9
07:00 1028 30.36 857 25.31 -2.3 27.9 65 -7.9 17.7
07:05 1028 30.36 857 25.31 -2.4 27.7 66 -8 17.6
07:10 1028 30.36 857 25.31 -2.6 27.3 66 -8.1 17.5
07:15 1028 30.36 857 25.31 -2.7 27.1 67 -7.9 17.7
07:20 1028 30.36 857 25.31 -2.7 27.1 67 -8.1 17.4
07:25 1028 30.36 857 25.31 -2.9 26.8 68 -8 17.7
07:30 1028 30.36 857 25.31 -3 26.6 68 -8 17.6
07:35 1028 30.36 857 25.31 -3.3 26.1 69 -8.2 17.3
07:40 1028 30.36 857 25.31 -3.4 25.9 69 -8.3 17
07:45 1028 30.36 857 25.31 -3.2 26.3 67 -8.5 16.7
07:50 1028 30.36 857 25.31 -3 26.6 67 -8.3 17.1
07:55 1028 30.36 857 25.31 -2.8 27.1 66 -8.2 17.2
08:00 1028 30.36 857 25.31 -2.7 27.2 66 -8.2 17.2
08:05 1028 30.36 857 25.31 -2.7 27.1 66 -8.2 17.2
08:10 1028 30.36 857 25.31 -3.3 26 68 -8.5 16.8
08:15 1028 30.36 857 25.31 -3.6 25.6 69 -8.5 16.8
08:20 1028 30.36 857 25.31 -3.9 25 70 -8.6 16.5
08:25 1028 30.36 858 25.34 -4.1 24.6 71 -8.6 16.5
08:30 1028 30.36 858 25.34 -4.2 24.5 72 -8.6 16.6
08:35 1029 30.39 858 25.34 -4.1 24.5 71 -8.6 16.5
08:40 1029 30.39 858 25.34 -4.1 24.7 71 -8.6 16.6
08:45 1029 30.39 858 25.34 -4.2 24.5 71 -8.7 16.4
08:50 1029 30.39 858 25.34 -4.5 23.9 72 -8.8 16.2
08:55 1029 30.39 858 25.34 -4.2 24.4 70 -8.8 16.1
09:00 1029 30.39 858 25.34 -3.8 25.2 68 -8.8 16.2
09:05 1029 30.39 858 25.34 -3.8 25.1 69 -8.8 16.2
09:10 1029 30.39 858 25.34 -3.9 24.9 69 -8.8 16.2
09:15 1029 30.39 858 25.34 -4.1 24.6 70 -8.8 16.2
09:20 1029 30.39 858 25.34 -4 24.8 69 -8.8 16.2
09:25 1029 30.39 858 25.34 -3.6 25.5 67 -8.8 16.2
09:30 1029 30.39 858 25.34 -3.3 26 67 -8.7 16.4
09:35 1029 30.39 858 25.34 -2.9 26.7 65 -8.7 16.3
09:40 1029 30.39 858 25.34 -2.8 26.9 64 -8.6 16.5
09:45 1029 30.39 858 25.34 -3.1 26.5 64 -8.8 16.1
09:50 1029 30.39 858 25.34 -3 26.5 64 -8.9 16.1
09:55 1029 30.39 858 25.34 -2.9 26.7 64 -8.9 16
10:00 1029 30.39 858 25.34 -3 26.6 64 -8.9 16
10:05 1029 30.39 858 25.34 -2.7 27.1 62 -9.1 15.6
10:10 1029 30.39 858 25.34 -2.3 27.9 60 -9 15.9
10:15 1029 30.39 858 25.34 -1.8 28.8 58 -8.9 15.9
10:20 1029 30.39 859 25.37 -1.4 29.5 57 -8.9 15.9
10:25 1029 30.39 859 25.37 -1.2 29.8 56 -8.8 16.2
10:30 1029 30.39 859 25.37 -1.1 30.1 56 -8.8 16.2
10:35 1029 30.39 859 25.37 -1.1 30 57 -8.5 16.6
10:40 1029 30.39 859 25.37 -0.9 30.4 56 -8.7 16.4
10:45 1029 30.39 859 25.37 -0.7 30.8 55 -8.7 16.4
10:50 1029 30.39 859 25.37 -0.6 30.9 55 -8.6 16.6
10:55 1029 30.39 859 25.37 -0.3 31.4 53 -8.8 16.1
11:00 1029 30.39 859 25.37 0 32 51 -8.9 15.9
11:05 1029 30.39 859 25.37 0.3 32.6 50 -9 15.9
11:10 1029 30.39 859 25.37 0.5 32.9 50 -8.8 16.2
11:15 1030 30.42 859 25.37 1 33.7 49 -8.5 16.7
11:20 1030 30.42 859 25.37 1.6 34.8 47 -8.5 16.7
11:25 1030 30.42 859 25.37 1.9 35.3 46 -8.7 16.4
11:30 1030 30.42 859 25.37 2.1 35.7 44 -8.9 16
11:35 1030 30.42 859 25.37 2 35.6 47 -8.2 17.2
11:40 1030 30.42 859 25.37 1.4 34.6 48 -8.3 17
11:45 1030 30.42 859 25.37 1 33.7 48 -8.9 16.1
11:50 1030 30.42 859 25.37 1.4 34.5 47 -8.7 16.3
11:55 1030 30.42 859 25.37 2.1 35.7 44 -9.1 15.6
12:00 1030 30.42 859 25.37 2.4 36.4 43 -8.9 15.9
12:05 1030 30.42 859 25.37 2.7 36.9 43 -8.5 16.7
12:10 1030 30.42 859 25.37 2.4 36.3 43 -8.8 16.1
12:15 1030 30.42 859 25.37 2.8 37 43 -8.7 16.4
12:20 1030 30.42 859 25.37 2.9 37.2 43 -8.4 16.9
12:25 1030 30.42 859 25.37 3 37.4 44 -8.1 17.4
12:30 1030 30.42 859 25.37 2.9 37.2 44 -8.3 17.1
12:35 1029 30.39 859 25.37 3.2 37.7 42 -8.6 16.5
12:40 1029 30.39 859 25.37 3.4 38.1 42 -8.4 16.9
12:45 1029 30.39 858 25.34 3.6 38.5 41 -8.5 16.8
12:50 1029 30.39 858 25.34 3.8 38.9 41 -8.4 16.9
12:55 1029 30.39 858 25.34 3.9 39.1 41 -8.3 17
13:00 1029 30.39 858 25.34 3.8 38.9 40 -8.5 16.8
13:05 1029 30.39 858 25.34 3.9 39 40 -8.6 16.4
13:10 1029 30.39 858 25.34 4.1 39.4 39 -8.6 16.6
13:15 1029 30.39 858 25.34 4.9 40.7 36 -9 15.8
13:20 1029 30.39 858 25.34 5.4 41.8 35 -9 15.9
13:25 1029 30.39 858 25.34 5.4 41.7 36 -8.4 16.8
13:30 1029 30.39 858 25.34 4.6 40.3 36 -9.1 15.6
13:35 1029 30.39 858 25.34 4.9 40.9 36 -8.9 15.9
13:40 1029 30.39 858 25.34 4.8 40.7 36 -9 15.7
13:45 1029 30.39 858 25.34 4.4 39.9 36 -9.3 15.3
13:50 1029 30.39 858 25.34 4 39.2 42 -7.7 18.1
13:55 1029 30.39 858 25.34 3.5 38.3 43 -8 17.6
14:00 1029 30.39 858 25.34 3.4 38.1 44 -7.7 18.1
14:05 1029 30.39 858 25.34 3.2 37.8 44 -7.8 18
14:10 1029 30.39 858 25.34 3.4 38.2 44 -7.8 18
14:15 1029 30.39 858 25.34 3.5 38.3 43 -7.9 17.8
14:20 1029 30.39 858 25.34 3.7 38.7 43 -7.9 17.8
14:25 1028 30.36 858 25.34 3.3 37.9 44 -7.9 17.9
14:30 1028 30.36 858 25.34 2.9 37.2 46 -7.7 18.2
14:35 1028 30.36 858 25.34 2.8 37 45 -7.9 17.8
14:40 1028 30.36 858 25.34 2.9 37.1 43 -8.4 16.9
14:45 1028 30.36 858 25.34 3.2 37.7 42 -8.4 16.8
14:50 1028 30.36 858 25.34 3.5 38.3 41 -8.5 16.6
14:55 1028 30.36 858 25.34 3.9 38.9 41 -8.3 17.1
15:00 1028 30.36 858 25.34 3.8 38.9 41 -8.1 17.3
15:05 1028 30.36 857 25.31 3.8 38.8 41 -8.5 16.8
15:10 1028 30.36 857 25.31 4.1 39.3 40 -8.4 16.8
15:15 1028 30.36 857 25.31 4.2 39.5 39 -8.6 16.5
15:20 1028 30.36 857 25.31 4.2 39.6 40 -8.3 17
15:25 1028 30.36 857 25.31 4.3 39.8 38 -8.7 16.4
15:30 1028 30.36 857 25.31 4.3 39.7 38 -8.8 16.1
15:35 1028 30.36 857 25.31 4.4 40 37 -9 15.8
15:40 1028 30.36 857 25.31 4.4 39.9 38 -8.6 16.6
15:45 1028 30.36 857 25.31 4.3 39.8 38 -8.8 16.1
15:50 1028 30.36 857 25.31 4.8 40.7 36 -9 15.8
15:55 1028 30.36 857 25.31 4.8 40.6 37 -8.7 16.4
16:00 1028 30.36 857 25.31 4.6 40.2 38 -8.6 16.6
16:05 1028 30.36 857 25.31 4.4 40 38 -8.5 16.6
16:10 1028 30.36 857 25.31 4.3 39.7 38 -8.9 16
16:15 1028 30.36 857 25.31 4.9 40.7 35 -9.2 15.5
16:20 1028 30.36 857 25.31 5.3 41.6 35 -9 15.9
16:25 1028 30.36 857 25.31 5.5 41.9 34 -9 15.9
16:30 1028 30.36 857 25.31 5.9 42.7 33 -9 15.9
16:35 1028 30.36 857 25.31 6.1 43 34 -8.6 16.5
16:40 1028 30.36 857 25.31 6 42.8 34 -8.6 16.4
16:45 1028 30.36 857 25.31 5.9 42.6 33 -9 15.8
16:50 1028 30.36 857 25.31 5.7 42.3 34 -8.9 15.9
16:55 1028 30.36 857 25.31 5.5 41.8 35 -8.7 16.3
17:00 1028 30.36 857 25.31 5.3 41.5 35 -9.1 15.7
17:05 1028 30.36 857 25.31 5.7 42.2 34 -8.9 15.9
17:10 1028 30.36 857 25.31 5.7 42.3 35 -8.7 16.4
17:15 1028 30.36 857 25.31 5.2 41.4 37 -8.4 16.9
17:20 1028 30.36 857 25.31 5.3 41.5 36 -8.5 16.6
17:25 1028 30.36 857 25.31 5.4 41.8 36 -8.5 16.6
17:30 1028 30.36 857 25.31 5.3 41.5 37 -8.2 17.3
17:35 1028 30.36 857 25.31 5 41 39 -7.7 18.1
17:40 1028 30.36 857 25.31 4.4 40 40 -7.9 17.7
17:45 1028 30.36 857 25.31 4 39.2 41 -8.1 17.5
17:50 1028 30.36 857 25.31 3.6 38.4 43 -8 17.6
17:55 1028 30.36 857 25.31 3.4 38.1 42 -8.4 16.9
18:00 1028 30.36 857 25.31 3.2 37.7 44 -8 17.6
18:05 1028 30.36 857 25.31 3 37.4 45 -7.7 18.1
18:10 1028 30.36 857 25.31 2.4 36.4 48 -7.5 18.6
18:15 1028 30.36 857 25.31 2.1 35.8 49 -7.6 18.3
18:20 1028 30.36 857 25.31 1.8 35.2 48 -8.2 17.3
18:25 1028 30.36 857 25.31 1.6 34.8 49 -8.1 17.4
18:30 1028 30.36 857 25.31 1 33.8 50 -8.2 17.2
18:35 1028 30.36 857 25.31 0.8 33.5 50 -8.4 16.9
18:40 1028 30.36 857 25.31 0.5 32.9 50 -8.6 16.4
18:45 1028 30.36 857 25.31 0.2 32.4 51 -8.7 16.4
18:50 1028 30.36 857 25.31 -0.2 31.6 53 -8.7 16.3
18:55 1028 30.36 857 25.31 -0.4 31.2 55 -8.5 16.7
19:00 1028 30.36 857 25.31 -1 30.2 57 -8.6 16.5
19:05 1028 30.36 857 25.31 -1 30.2 54 -9.1 15.7
19:10 1027 30.33 857 25.31 -0.3 31.4 51 -9.4 15
19:15 1027 30.33 857 25.31 0 32 48 -9.9 14.2
19:20 1027 30.33 857 25.31 0.3 32.5 48 -9.4 15
19:25 1027 30.33 857 25.31 0.1 32.2 48 -9.6 14.8
19:30 1027 30.33 857 25.31 -0.1 31.9 50 -9.4 15.1
19:35 1027 30.33 857 25.31 -0.3 31.5 50 -9.4 15.1
19:40 1027 30.33 857 25.31 -0.6 31 51 -9.4 15
19:45 1027 30.33 857 25.31 -0.8 30.5 52 -9.6 14.7
19:50 1027 30.33 856 25.28 -0.9 30.3 52 -9.6 14.8
19:55 1027 30.33 856 25.28 -0.8 30.5 51 -9.6 14.6
20:00 1027 30.33 856 25.28 -0.9 30.4 52 -9.5 14.9
20:05 1027 30.33 856 25.28 -1.1 30 52 -9.8 14.4
20:10 1027 30.33 856 25.28 -1.4 29.5 54 -9.6 14.7
20:15 1027 30.33 856 25.28 -1.6 29 54 -9.7 14.6
20:20 1027 30.33 856 25.28 -1.3 29.7 53 -9.8 14.4
20:25 1027 30.33 856 25.28 -1 30.2 52 -9.7 14.5
20:30 1027 30.33 856 25.28 -1 30.2 52 -9.7 14.6
20:35 1027 30.33 856 25.28 -1 30.1 51 -9.9 14.2
20:40 1027 30.33 856 25.28 -1 30.3 52 -9.7 14.6
20:45 1027 30.33 856 25.28 -1.2 29.8 52 -9.8 14.3
20:50 1027 30.33 856 25.28 -1.1 30.1 51 -10 14
20:55 1027 30.33 856 25.28 -0.9 30.4 48 -10.5 13.1
21:00 1027 30.33 856 25.28 -0.4 31.3 47 -10.4 13.3
21:05 1027 30.33 856 25.28 -0.4 31.2 48 -10.1 13.8
21:10 1027 30.33 856 25.28 -0.8 30.6 50 -9.9 14.1
21:15 1027 30.33 856 25.28 -1.2 29.8 52 -9.9 14.2
21:20 1027 30.33 856 25.28 -1.7 29 54 -9.9 14.1
21:25 1027 30.33 856 25.28 -1.7 28.9 52 -10.3 13.5
21:30 1027 30.33 856 25.28 -1.6 29.1 50 -10.7 12.8
21:35 1027 30.33 856 25.28 -1.6 29.2 51 -10.5 13
21:40 1027 30.33 856 25.28 -1.8 28.8 51 -10.6 13
21:45 1026 30.3 856 25.28 -2 28.4 52 -10.5 13.1
21:50 1027 30.33 856 25.28 -2 28.4 50 -11 12.2
21:55 1027 30.33 856 25.28 -1.7 28.9 50 -10.9 12.4
22:00 1027 30.33 856 25.28 -1.7 28.9 51 -10.7 12.8
22:05 1026 30.3 856 25.28 -2 28.4 51 -10.8 12.6
22:10 1026 30.3 856 25.28 -2.2 28 52 -10.7 12.8
22:15 1026 30.3 856 25.28 -2.2 28 50 -11.4 11.4
22:20 1026 30.3 856 25.28 -1.6 29.1 49 -11 12.3
22:25 1026 30.3 856 25.28 -1.8 28.8 50 -10.9 12.3
22:30 1026 30.3 856 25.28 -1.8 28.8 49 -11.2 11.8
22:35 1026 30.3 856 25.28 -1.4 29.4 47 -11.2 11.8
22:40 1026 30.3 856 25.28 -1.5 29.2 45 -12.1 10.2
22:45 1026 30.3 856 25.28 -1.9 28.7 46 -12 10.5
22:50 1026 30.3 856 25.28 -2.1 28.3 47 -11.8 10.7
22:55 1026 30.3 856 25.28 -2 28.4 47 -11.9 10.6
23:00 1026 30.3 856 25.28 -2.1 28.3 49 -11.4 11.5
23:05 1027 30.33 856 25.28 -2.4 27.8 49 -11.7 11
23:10 1027 30.33 856 25.28 -2.3 27.8 49 -11.6 11.1
23:15 1027 30.33 856 25.28 -2.3 27.9 49 -11.6 11.1
23:20 1027 30.33 856 25.28 -2.2 28 49 -11.5 11.3
23:25 1027 30.33 856 25.28 -2.3 27.9 50 -11.5 11.4
23:30 1027 30.33 856 25.28 -2.4 27.7 45 -12.6 9.3
23:35 1027 30.33 856 25.28 -2.8 27 45 -13 8.6
23:40 1027 30.33 856 25.28 -2.9 26.8 44 -13.4 7.8
23:45 1027 30.33 856 25.28 -2.7 27.1 45 -13 8.6
23:50 1027 30.33 856 25.28 -3.3 26.1 47 -13.1 8.4
23:55 1027 30.33 856 25.28 -3.5 25.7 49 -12.8 9
24:00 1027 30.33 856 25.28 -4 24.8 49 -13.2 8.2